City of Sunrise, Florida
Current Conditions -  °F | °C
As of 1:53 AM on Thursday 23 Oct 2014 (Local Time) from KFXE Reporting Station
Overcast Overcast  
Wind Chill: 75°   Ceiling: 7000
Heat Index: 75°   Visibility: 10mi
Dew Point: 72°   Wind: 0mph
Humidity: 90%   Direction: NA
Pressure: 29.91"   Gusts: NA
Location:  26.1495°N, 80.2263°W
Report Text: KFXE 230553Z 00000KT 10SM BKN070 OVC100 24/22 A2991 RMK AO2 SLP129 60009 T02390222 10261 20239 58012
Loading
Personal Weather Stations






























Interactive Weather Map
Tropical Storm Tracking
New forecast layout! Learn more

10-Day Weather Forecast

Advertisements
Track Severe Weather on mobile